Etusivu
METAR-TAF:

METAR-TAF

Lentoasemat :

Revelstoke, Brittiläinen Kolumbia, Kanada

Leveyspiiri: 50-58N, Pituuspiiri: 118-11W, korkeus merenpinnasta: 443 m

Tämänhetkinen sää

Tämä raportti tehtiin 33 minuuttia sitten, kello 02.01 UTC
Tuuli 2 kn eri suunnista
Lämpötila 4°C
Kosteus 100%
Ilmanpaine 1011 hPa
Näkyvyys: 14.5 km
Hajonneita pilviä 1000 ft:n korkeudessa
Pilvistä 2400 ft:n korkeudessa

METAR: CYRV 190201Z AUTO VRB02KT 9SM BKN010 OVC024 04/04 A2986 RMK SLP127

Aika: 18:34 (02:34 UTC)


TAF: puuttuu

Säähavainnot ja -ennusteet yli 4000 lentoasemalta (METAR- ja TAF-raportit).

Käytössä olevat sääasemat on merkitty karttaan keltaisilla ja punaisilla pisteillä.

Aseta hiiri pisteen päälle nähdäksesi sääaseman nimen.

Klikkaa sitten nähdäksesi säähavainnot ja -ennusteet.

Kartan vaihtaminen: klikkaa mustalla rastilla varustettuja vihreitä pisteitä, niin voit zoomata sisään; viivalla varustettua vihreää pistettä, niin voit zoomata ulos tai vihreitä nuolia, niin pääset viereisille kartoille.


METAR-TAF: